sensor_id;sensor_type;location;lat;lon;timestamp;P1;durP1;ratioP1;P2;durP2;ratioP2
76863;SDS011;65834;52.364;9.754;2023-04-10T00:02:02;49.25;;;31.48;;
76863;SDS011;65834;52.364;9.754;2023-04-10T00:04:32;47.33;;;30.37;;
76863;SDS011;65834;52.364;9.754;2023-04-10T00:07:01;46.00;;;30.83;;
76863;SDS011;65834;52.364;9.754;2023-04-10T00:09:31;46.47;;;31.00;;
76863;SDS011;65834;52.364;9.754;2023-04-10T00:12:00;44.97;;;28.93;;
76863;SDS011;65834;52.364;9.754;2023-04-10T00:14:29;44.73;;;28.80;;
76863;SDS011;65834;52.364;9.754;2023-04-10T00:17:01;49.30;;;31.73;;
76863;SDS011;65834;52.364;9.754;2023-04-10T00:19:31;49.90;;;31.90;;
76863;SDS011;65834;52.364;9.754;2023-04-10T00:22:00;46.40;;;29.33;;
76863;SDS011;65834;52.364;9.754;2023-04-10T00:24:29;49.50;;;31.07;;
76863;SDS011;65834;52.364;9.754;2023-04-10T00:26:59;48.10;;;30.50;;
76863;SDS011;65834;52.364;9.754;2023-04-10T00:29:28;48.70;;;31.70;;
76863;SDS011;65834;52.364;9.754;2023-04-10T00:31:57;47.70;;;31.17;;
76863;SDS011;65834;52.364;9.754;2023-04-10T00:34:30;46.70;;;32.20;;
76863;SDS011;65834;52.364;9.754;2023-04-10T00:39:28;47.13;;;30.17;;
76863;SDS011;65834;52.364;9.754;2023-04-10T00:41:58;49.50;;;32.33;;
76863;SDS011;65834;52.364;9.754;2023-04-10T00:44:27;50.23;;;31.57;;
76863;SDS011;65834;52.364;9.754;2023-04-10T00:46:57;52.20;;;32.07;;
76863;SDS011;65834;52.364;9.754;2023-04-10T00:49:26;53.20;;;32.33;;
76863;SDS011;65834;52.364;9.754;2023-04-10T00:51:58;48.07;;;31.13;;
76863;SDS011;65834;52.364;9.754;2023-04-10T00:54:27;48.28;;;29.33;;
76863;SDS011;65834;52.364;9.754;2023-04-10T00:56:57;45.70;;;28.87;;
76863;SDS011;65834;52.364;9.754;2023-04-10T00:59:26;49.20;;;29.53;;
76863;SDS011;65834;52.364;9.754;2023-04-10T01:01:56;49.07;;;32.50;;
76863;SDS011;65834;52.364;9.754;2023-04-10T01:04:27;50.03;;;32.33;;
76863;SDS011;65834;52.364;9.754;2023-04-10T01:07:01;47.37;;;29.13;;
76863;SDS011;65834;52.364;9.754;2023-04-10T01:09:34;51.10;;;31.80;;
76863;SDS011;65834;52.364;9.754;2023-04-10T01:12:08;48.87;;;31.93;;
76863;SDS011;65834;52.364;9.754;2023-04-10T01:14:41;48.97;;;30.67;;
76863;SDS011;65834;52.364;9.754;2023-04-10T01:17:16;47.57;;;31.10;;
76863;SDS011;65834;52.364;9.754;2023-04-10T01:19:56;50.17;;;31.37;;
76863;SDS011;65834;52.364;9.754;2023-04-10T01:22:32;50.30;;;31.77;;
76863;SDS011;65834;52.364;9.754;2023-04-10T01:27:57;51.37;;;30.87;;
76863;SDS011;65834;52.364;9.754;2023-04-10T01:30:33;48.23;;;32.33;;
76863;SDS011;65834;52.364;9.754;2023-04-10T01:33:03;48.42;;;30.35;;
76863;SDS011;65834;52.364;9.754;2023-04-10T01:35:34;51.50;;;32.13;;
76863;SDS011;65834;52.364;9.754;2023-04-10T01:38:04;49.90;;;31.53;;
76863;SDS011;65834;52.364;9.754;2023-04-10T01:40:34;52.00;;;33.53;;
76863;SDS011;65834;52.364;9.754;2023-04-10T01:43:09;50.33;;;31.70;;
76863;SDS011;65834;52.364;9.754;2023-04-10T01:45:48;51.83;;;31.70;;
76863;SDS011;65834;52.364;9.754;2023-04-10T01:48:19;50.37;;;31.37;;
76863;SDS011;65834;52.364;9.754;2023-04-10T01:50:48;49.63;;;30.77;;
76863;SDS011;65834;52.364;9.754;2023-04-10T01:53:18;48.60;;;29.17;;
76863;SDS011;65834;52.364;9.754;2023-04-10T01:55:48;45.97;;;29.87;;
76863;SDS011;65834;52.364;9.754;2023-04-10T01:58:19;47.23;;;29.07;;
76863;SDS011;65834;52.364;9.754;2023-04-10T02:00:54;47.77;;;30.87;;
76863;SDS011;65834;52.364;9.754;2023-04-10T02:03:24;49.22;;;30.55;;
76863;SDS011;65834;52.364;9.754;2023-04-10T02:05:55;47.43;;;30.67;;
76863;SDS011;65834;52.364;9.754;2023-04-10T02:08:32;48.27;;;30.73;;
76863;SDS011;65834;52.364;9.754;2023-04-10T02:11:06;48.77;;;30.37;;
76863;SDS011;65834;52.364;9.754;2023-04-10T02:13:38;46.73;;;30.70;;
76863;SDS011;65834;52.364;9.754;2023-04-10T02:16:11;48.20;;;28.40;;
76863;SDS011;65834;52.364;9.754;2023-04-10T02:18:42;47.33;;;30.27;;
76863;SDS011;65834;52.364;9.754;2023-04-10T02:21:13;48.73;;;31.13;;
76863;SDS011;65834;52.364;9.754;2023-04-10T02:23:43;48.00;;;30.30;;
76863;SDS011;65834;52.364;9.754;2023-04-10T02:26:14;46.03;;;29.50;;
76863;SDS011;65834;52.364;9.754;2023-04-10T02:28:43;50.93;;;30.47;;
76863;SDS011;65834;52.364;9.754;2023-04-10T02:31:15;44.87;;;28.40;;
76863;SDS011;65834;52.364;9.754;2023-04-10T02:33:46;46.70;;;28.37;;
76863;SDS011;65834;52.364;9.754;2023-04-10T02:36:15;50.63;;;31.17;;
76863;SDS011;65834;52.364;9.754;2023-04-10T02:38:45;48.47;;;30.80;;
76863;SDS011;65834;52.364;9.754;2023-04-10T02:41:14;47.47;;;29.27;;
76863;SDS011;65834;52.364;9.754;2023-04-10T02:43:43;45.03;;;28.40;;
76863;SDS011;65834;52.364;9.754;2023-04-10T02:46:16;48.90;;;29.83;;
76863;SDS011;65834;52.364;9.754;2023-04-10T02:48:45;47.67;;;29.73;;
76863;SDS011;65834;52.364;9.754;2023-04-10T02:51:15;45.43;;;27.87;;
76863;SDS011;65834;52.364;9.754;2023-04-10T02:53:44;40.90;;;27.00;;
76863;SDS011;65834;52.364;9.754;2023-04-10T02:56:23;50.30;;;29.60;;
76863;SDS011;65834;52.364;9.754;2023-04-10T02:58:53;49.37;;;28.73;;
76863;SDS011;65834;52.364;9.754;2023-04-10T03:01:26;41.93;;;28.50;;
76863;SDS011;65834;52.364;9.754;2023-04-10T03:03:56;41.85;;;27.60;;
76863;SDS011;65834;52.364;9.754;2023-04-10T03:06:29;48.20;;;27.37;;
76863;SDS011;65834;52.364;9.754;2023-04-10T03:08:59;46.83;;;27.73;;
76863;SDS011;65834;52.364;9.754;2023-04-10T03:11:28;45.27;;;28.47;;
76863;SDS011;65834;52.364;9.754;2023-04-10T03:13:59;42.93;;;28.60;;
76863;SDS011;65834;52.364;9.754;2023-04-10T03:16:31;41.67;;;26.83;;
76863;SDS011;65834;52.364;9.754;2023-04-10T03:19:02;40.53;;;27.50;;
76863;SDS011;65834;52.364;9.754;2023-04-10T03:21:31;41.17;;;26.63;;
76863;SDS011;65834;52.364;9.754;2023-04-10T03:24:02;43.33;;;27.60;;
76863;SDS011;65834;52.364;9.754;2023-04-10T03:26:32;40.93;;;25.90;;
76863;SDS011;65834;52.364;9.754;2023-04-10T03:29:01;42.77;;;26.00;;
76863;SDS011;65834;52.364;9.754;2023-04-10T03:31:35;44.30;;;26.87;;
76863;SDS011;65834;52.364;9.754;2023-04-10T03:34:05;43.65;;;26.92;;
76863;SDS011;65834;52.364;9.754;2023-04-10T03:36:35;39.03;;;25.63;;
76863;SDS011;65834;52.364;9.754;2023-04-10T03:39:04;41.40;;;26.47;;
76863;SDS011;65834;52.364;9.754;2023-04-10T03:41:34;42.00;;;25.63;;
76863;SDS011;65834;52.364;9.754;2023-04-10T03:44:03;42.63;;;27.50;;
76863;SDS011;65834;52.364;9.754;2023-04-10T03:46:35;40.13;;;24.47;;
76863;SDS011;65834;52.364;9.754;2023-04-10T03:49:06;37.37;;;23.87;;
76863;SDS011;65834;52.364;9.754;2023-04-10T03:51:35;38.07;;;25.87;;
76863;SDS011;65834;52.364;9.754;2023-04-10T03:54:05;44.87;;;28.07;;
76863;SDS011;65834;52.364;9.754;2023-04-10T03:56:34;40.67;;;25.83;;
76863;SDS011;65834;52.364;9.754;2023-04-10T03:59:04;39.23;;;24.53;;
76863;SDS011;65834;52.364;9.754;2023-04-10T04:01:40;41.80;;;26.13;;
76863;SDS011;65834;52.364;9.754;2023-04-10T04:04:10;41.55;;;25.73;;
76863;SDS011;65834;52.364;9.754;2023-04-10T04:06:58;44.60;;;26.07;;
76863;SDS011;65834;52.364;9.754;2023-04-10T04:09:41;42.60;;;25.77;;
76863;SDS011;65834;52.364;9.754;2023-04-10T04:12:23;44.73;;;25.97;;
76863;SDS011;65834;52.364;9.754;2023-04-10T04:15:07;41.13;;;25.57;;
76863;SDS011;65834;52.364;9.754;2023-04-10T04:17:53;40.33;;;25.17;;
76863;SDS011;65834;52.364;9.754;2023-04-10T04:20:39;37.27;;;24.50;;
76863;SDS011;65834;52.364;9.754;2023-04-10T04:23:17;43.03;;;25.50;;
76863;SDS011;65834;52.364;9.754;2023-04-10T04:26:09;43.10;;;25.90;;
76863;SDS011;65834;52.364;9.754;2023-04-10T04:28:52;42.05;;;25.58;;
76863;SDS011;65834;52.364;9.754;2023-04-10T04:31:41;42.60;;;25.43;;
76863;SDS011;65834;52.364;9.754;2023-04-10T04:34:32;37.80;;;24.70;;
76863;SDS011;65834;52.364;9.754;2023-04-10T04:37:20;39.73;;;25.20;;
76863;SDS011;65834;52.364;9.754;2023-04-10T04:40:10;37.60;;;24.67;;
76863;SDS011;65834;52.364;9.754;2023-04-10T04:43:15;36.23;;;23.03;;
76863;SDS011;65834;52.364;9.754;2023-04-10T04:45:57;39.67;;;23.88;;
76863;SDS011;65834;52.364;9.754;2023-04-10T04:48:46;38.03;;;22.93;;
76863;SDS011;65834;52.364;9.754;2023-04-10T04:51:34;39.70;;;23.30;;
76863;SDS011;65834;52.364;9.754;2023-04-10T04:54:12;40.23;;;25.77;;
76863;SDS011;65834;52.364;9.754;2023-04-10T04:57:05;36.97;;;21.80;;
76863;SDS011;65834;52.364;9.754;2023-04-10T05:00:02;35.87;;;22.20;;
76863;SDS011;65834;52.364;9.754;2023-04-10T05:02:44;38.87;;;22.80;;
76863;SDS011;65834;52.364;9.754;2023-04-10T05:05:33;36.63;;;22.13;;
76863;SDS011;65834;52.364;9.754;2023-04-10T05:08:27;36.17;;;21.80;;
76863;SDS011;65834;52.364;9.754;2023-04-10T05:11:06;39.27;;;23.67;;
76863;SDS011;65834;52.364;9.754;2023-04-10T05:13:54;36.33;;;22.37;;
76863;SDS011;65834;52.364;9.754;2023-04-10T05:16:45;34.97;;;21.47;;
76863;SDS011;65834;52.364;9.754;2023-04-10T05:19:38;38.42;;;21.95;;
76863;SDS011;65834;52.364;9.754;2023-04-10T05:22:23;37.20;;;23.20;;
76863;SDS011;65834;52.364;9.754;2023-04-10T05:25:16;37.03;;;24.03;;
76863;SDS011;65834;52.364;9.754;2023-04-10T05:28:02;34.17;;;21.53;;
76863;SDS011;65834;52.364;9.754;2023-04-10T05:30:50;38.07;;;23.07;;
76863;SDS011;65834;52.364;9.754;2023-04-10T05:33:47;37.27;;;22.23;;
76863;SDS011;65834;52.364;9.754;2023-04-10T05:36:24;38.07;;;22.80;;
76863;SDS011;65834;52.364;9.754;2023-04-10T05:39:00;34.00;;;21.43;;
76863;SDS011;65834;52.364;9.754;2023-04-10T05:42:05;34.17;;;20.53;;
76863;SDS011;65834;52.364;9.754;2023-04-10T05:44:48;36.40;;;22.50;;
76863;SDS011;65834;52.364;9.754;2023-04-10T05:47:32;30.90;;;20.27;;
76863;SDS011;65834;52.364;9.754;2023-04-10T05:50:37;35.63;;;21.50;;
76863;SDS011;65834;52.364;9.754;2023-04-10T05:53:30;34.67;;;21.60;;
76863;SDS011;65834;52.364;9.754;2023-04-10T05:56:18;34.47;;;21.43;;
76863;SDS011;65834;52.364;9.754;2023-04-10T05:59:09;36.73;;;20.93;;
76863;SDS011;65834;52.364;9.754;2023-04-10T06:01:57;33.43;;;20.27;;
76863;SDS011;65834;52.364;9.754;2023-04-10T06:04:27;36.60;;;21.97;;
76863;SDS011;65834;52.364;9.754;2023-04-10T06:06:59;35.23;;;21.33;;
76863;SDS011;65834;52.364;9.754;2023-04-10T06:09:30;33.17;;;20.23;;
76863;SDS011;65834;52.364;9.754;2023-04-10T06:12:00;33.37;;;20.03;;
76863;SDS011;65834;52.364;9.754;2023-04-10T06:14:32;35.47;;;20.40;;
76863;SDS011;65834;52.364;9.754;2023-04-10T06:17:01;32.25;;;18.63;;
76863;SDS011;65834;52.364;9.754;2023-04-10T06:19:31;34.70;;;21.47;;
76863;SDS011;65834;52.364;9.754;2023-04-10T06:22:00;33.27;;;21.03;;
76863;SDS011;65834;52.364;9.754;2023-04-10T06:24:29;32.07;;;19.73;;
76863;SDS011;65834;52.364;9.754;2023-04-10T06:26:59;34.40;;;20.43;;
76863;SDS011;65834;52.364;9.754;2023-04-10T06:29:28;31.87;;;19.80;;
76863;SDS011;65834;52.364;9.754;2023-04-10T06:32:00;32.17;;;19.93;;
76863;SDS011;65834;52.364;9.754;2023-04-10T06:34:33;31.57;;;19.03;;
76863;SDS011;65834;52.364;9.754;2023-04-10T06:37:06;31.13;;;19.20;;
76863;SDS011;65834;52.364;9.754;2023-04-10T06:39:36;29.27;;;19.07;;
76863;SDS011;65834;52.364;9.754;2023-04-10T06:42:06;29.00;;;17.13;;
76863;SDS011;65834;52.364;9.754;2023-04-10T06:44:53;30.57;;;19.60;;
76863;SDS011;65834;52.364;9.754;2023-04-10T06:47:25;28.07;;;17.33;;
76863;SDS011;65834;52.364;9.754;2023-04-10T06:49:54;29.08;;;17.70;;
76863;SDS011;65834;52.364;9.754;2023-04-10T06:52:24;26.80;;;17.23;;
76863;SDS011;65834;52.364;9.754;2023-04-10T06:54:53;25.60;;;16.07;;
76863;SDS011;65834;52.364;9.754;2023-04-10T06:57:22;28.13;;;16.73;;
76863;SDS011;65834;52.364;9.754;2023-04-10T06:59:52;27.93;;;18.50;;
76863;SDS011;65834;52.364;9.754;2023-04-10T07:02:21;27.13;;;16.20;;
76863;SDS011;65834;52.364;9.754;2023-04-10T07:04:53;26.83;;;16.37;;
76863;SDS011;65834;52.364;9.754;2023-04-10T07:07:23;27.60;;;16.15;;
76863;SDS011;65834;52.364;9.754;2023-04-10T07:09:52;25.67;;;15.73;;
76863;SDS011;65834;52.364;9.754;2023-04-10T07:12:23;24.97;;;15.13;;
76863;SDS011;65834;52.364;9.754;2023-04-10T07:14:52;25.30;;;15.23;;
76863;SDS011;65834;52.364;9.754;2023-04-10T07:17:23;24.73;;;14.70;;
76863;SDS011;65834;52.364;9.754;2023-04-10T07:19:55;25.93;;;15.47;;
76863;SDS011;65834;52.364;9.754;2023-04-10T07:22:24;24.73;;;15.52;;
76863;SDS011;65834;52.364;9.754;2023-04-10T07:24:54;24.10;;;14.57;;
76863;SDS011;65834;52.364;9.754;2023-04-10T07:27:24;24.57;;;14.57;;
76863;SDS011;65834;52.364;9.754;2023-04-10T07:29:53;23.27;;;13.97;;
76863;SDS011;65834;52.364;9.754;2023-04-10T07:32:23;22.50;;;14.27;;
76863;SDS011;65834;52.364;9.754;2023-04-10T07:34:55;24.50;;;15.77;;
76863;SDS011;65834;52.364;9.754;2023-04-10T07:37:24;22.13;;;13.93;;
76863;SDS011;65834;52.364;9.754;2023-04-10T07:39:54;23.03;;;13.90;;
76863;SDS011;65834;52.364;9.754;2023-04-10T07:42:23;21.67;;;13.27;;
76863;SDS011;65834;52.364;9.754;2023-04-10T07:44:53;21.63;;;13.67;;
76863;SDS011;65834;52.364;9.754;2023-04-10T07:47:22;23.00;;;14.10;;
76863;SDS011;65834;52.364;9.754;2023-04-10T07:49:54;23.57;;;13.97;;
76863;SDS011;65834;52.364;9.754;2023-04-10T07:52:24;23.52;;;13.90;;
76863;SDS011;65834;52.364;9.754;2023-04-10T07:54:53;22.33;;;14.27;;
76863;SDS011;65834;52.364;9.754;2023-04-10T07:57:23;22.90;;;14.10;;
76863;SDS011;65834;52.364;9.754;2023-04-10T07:59:52;21.67;;;13.67;;
76863;SDS011;65834;52.364;9.754;2023-04-10T08:02:22;21.70;;;12.43;;
76863;SDS011;65834;52.364;9.754;2023-04-10T08:04:52;21.80;;;13.60;;
76863;SDS011;65834;52.364;9.754;2023-04-10T08:07:24;20.50;;;12.57;;
76863;SDS011;65834;52.364;9.754;2023-04-10T08:09:53;22.05;;;13.48;;
76863;SDS011;65834;52.364;9.754;2023-04-10T08:12:23;21.30;;;12.90;;
76863;SDS011;65834;52.364;9.754;2023-04-10T08:14:52;21.40;;;12.73;;
76863;SDS011;65834;52.364;9.754;2023-04-10T08:17:21;21.93;;;12.63;;
76863;SDS011;65834;52.364;9.754;2023-04-10T08:19:51;20.93;;;12.40;;
76863;SDS011;65834;52.364;9.754;2023-04-10T08:22:20;20.07;;;11.43;;
76863;SDS011;65834;52.364;9.754;2023-04-10T08:24:52;20.20;;;11.37;;
76863;SDS011;65834;52.364;9.754;2023-04-10T08:27:21;19.95;;;12.40;;
76863;SDS011;65834;52.364;9.754;2023-04-10T08:29:51;21.33;;;11.90;;
76863;SDS011;65834;52.364;9.754;2023-04-10T08:32:20;20.53;;;12.40;;
76863;SDS011;65834;52.364;9.754;2023-04-10T08:34:52;21.10;;;12.10;;
76863;SDS011;65834;52.364;9.754;2023-04-10T08:37:21;19.57;;;11.03;;
76863;SDS011;65834;52.364;9.754;2023-04-10T08:39:54;19.37;;;11.43;;
76863;SDS011;65834;52.364;9.754;2023-04-10T08:42:24;19.05;;;11.35;;
76863;SDS011;65834;52.364;9.754;2023-04-10T08:44:53;18.90;;;11.33;;
76863;SDS011;65834;52.364;9.754;2023-04-10T08:47:23;19.23;;;11.43;;
76863;SDS011;65834;52.364;9.754;2023-04-10T08:49:55;19.17;;;11.30;;
76863;SDS011;65834;52.364;9.754;2023-04-10T08:52:25;20.40;;;12.10;;
76863;SDS011;65834;52.364;9.754;2023-04-10T08:54:59;20.50;;;12.30;;
76863;SDS011;65834;52.364;9.754;2023-04-10T08:57:30;19.50;;;12.30;;
76863;SDS011;65834;52.364;9.754;2023-04-10T09:00:00;20.10;;;12.37;;
76863;SDS011;65834;52.364;9.754;2023-04-10T09:02:47;19.37;;;11.67;;
76863;SDS011;65834;52.364;9.754;2023-04-10T09:05:21;21.07;;;12.73;;
76863;SDS011;65834;52.364;9.754;2023-04-10T09:07:50;19.67;;;12.00;;
76863;SDS011;65834;52.364;9.754;2023-04-10T09:10:22;20.90;;;12.20;;
76863;SDS011;65834;52.364;9.754;2023-04-10T09:12:52;19.55;;;11.70;;
76863;SDS011;65834;52.364;9.754;2023-04-10T09:15:21;19.67;;;10.97;;
76863;SDS011;65834;52.364;9.754;2023-04-10T09:17:54;18.73;;;10.97;;
76863;SDS011;65834;52.364;9.754;2023-04-10T09:20:25;18.63;;;10.50;;
76863;SDS011;65834;52.364;9.754;2023-04-10T09:22:54;18.37;;;10.53;;
76863;SDS011;65834;52.364;9.754;2023-04-10T09:25:30;20.37;;;10.77;;
76863;SDS011;65834;52.364;9.754;2023-04-10T09:28:01;18.23;;;10.40;;
76863;SDS011;65834;52.364;9.754;2023-04-10T09:30:31;19.47;;;10.80;;
76863;SDS011;65834;52.364;9.754;2023-04-10T09:33:01;17.00;;;9.20;;
76863;SDS011;65834;52.364;9.754;2023-04-10T09:35:34;18.17;;;10.23;;
76863;SDS011;65834;52.364;9.754;2023-04-10T09:38:14;16.93;;;9.80;;
76863;SDS011;65834;52.364;9.754;2023-04-10T09:40:46;18.03;;;10.47;;
76863;SDS011;65834;52.364;9.754;2023-04-10T09:43:19;18.33;;;10.17;;
76863;SDS011;65834;52.364;9.754;2023-04-10T09:45:50;17.33;;;9.43;;
76863;SDS011;65834;52.364;9.754;2023-04-10T09:48:19;18.23;;;10.37;;
76863;SDS011;65834;52.364;9.754;2023-04-10T09:50:49;18.57;;;10.13;;
76863;SDS011;65834;52.364;9.754;2023-04-10T09:53:19;17.70;;;10.53;;
76863;SDS011;65834;52.364;9.754;2023-04-10T09:55:51;16.67;;;10.00;;
76863;SDS011;65834;52.364;9.754;2023-04-10T09:58:20;18.10;;;10.63;;
76863;SDS011;65834;52.364;9.754;2023-04-10T10:00:50;19.17;;;10.43;;
76863;SDS011;65834;52.364;9.754;2023-04-10T10:03:20;17.77;;;10.30;;
76863;SDS011;65834;52.364;9.754;2023-04-10T10:05:51;17.23;;;9.63;;
76863;SDS011;65834;52.364;9.754;2023-04-10T10:08:20;17.43;;;10.13;;
76863;SDS011;65834;52.364;9.754;2023-04-10T10:10:53;17.73;;;10.43;;
76863;SDS011;65834;52.364;9.754;2023-04-10T10:13:26;17.13;;;10.27;;
76863;SDS011;65834;52.364;9.754;2023-04-10T10:15:59;18.48;;;9.48;;
76863;SDS011;65834;52.364;9.754;2023-04-10T10:18:35;18.00;;;10.50;;
76863;SDS011;65834;52.364;9.754;2023-04-10T10:21:07;17.63;;;10.10;;
76863;SDS011;65834;52.364;9.754;2023-04-10T10:23:37;16.83;;;10.30;;
76863;SDS011;65834;52.364;9.754;2023-04-10T10:26:10;14.73;;;8.03;;
76863;SDS011;65834;52.364;9.754;2023-04-10T10:28:40;14.77;;;8.68;;
76863;SDS011;65834;52.364;9.754;2023-04-10T10:31:11;14.07;;;7.40;;
76863;SDS011;65834;52.364;9.754;2023-04-10T10:33:43;14.37;;;7.90;;
76863;SDS011;65834;52.364;9.754;2023-04-10T10:36:12;14.48;;;7.57;;
76863;SDS011;65834;52.364;9.754;2023-04-10T10:38:47;15.33;;;8.30;;
76863;SDS011;65834;52.364;9.754;2023-04-10T10:41:22;14.80;;;7.80;;
76863;SDS011;65834;52.364;9.754;2023-04-10T10:43:54;14.73;;;7.78;;
76863;SDS011;65834;52.364;9.754;2023-04-10T10:46:31;15.07;;;8.70;;
76863;SDS011;65834;52.364;9.754;2023-04-10T10:49:02;15.48;;;8.25;;
76863;SDS011;65834;52.364;9.754;2023-04-10T10:51:44;15.32;;;8.35;;
76863;SDS011;65834;52.364;9.754;2023-04-10T10:54:26;15.47;;;8.93;;
76863;SDS011;65834;52.364;9.754;2023-04-10T10:56:58;16.33;;;9.00;;
76863;SDS011;65834;52.364;9.754;2023-04-10T11:02:26;15.82;;;8.25;;
76863;SDS011;65834;52.364;9.754;2023-04-10T11:04:56;14.82;;;8.20;;
76863;SDS011;65834;52.364;9.754;2023-04-10T11:08:05;14.80;;;8.23;;
76863;SDS011;65834;52.364;9.754;2023-04-10T11:13:17;15.60;;;8.77;;
76863;SDS011;65834;52.364;9.754;2023-04-10T11:15:47;15.25;;;8.48;;
76863;SDS011;65834;52.364;9.754;2023-04-10T11:18:19;15.50;;;8.00;;
76863;SDS011;65834;52.364;9.754;2023-04-10T11:21:09;15.93;;;9.02;;
76863;SDS011;65834;52.364;9.754;2023-04-10T11:23:38;16.27;;;8.55;;
76863;SDS011;65834;52.364;9.754;2023-04-10T11:26:37;16.33;;;9.23;;
76863;SDS011;65834;52.364;9.754;2023-04-10T11:31:58;16.05;;;9.15;;
76863;SDS011;65834;52.364;9.754;2023-04-10T11:36:58;15.95;;;8.52;;
76863;SDS011;65834;52.364;9.754;2023-04-10T11:39:29;15.77;;;8.55;;
76863;SDS011;65834;52.364;9.754;2023-04-10T11:41:58;15.13;;;8.55;;
76863;SDS011;65834;52.364;9.754;2023-04-10T11:44:30;15.70;;;8.50;;
76863;SDS011;65834;52.364;9.754;2023-04-10T11:47:03;15.93;;;9.40;;
76863;SDS011;65834;52.364;9.754;2023-04-10T11:49:33;14.10;;;7.93;;
76863;SDS011;65834;52.364;9.754;2023-04-10T11:52:02;16.38;;;9.88;;
76863;SDS011;65834;52.364;9.754;2023-04-10T11:54:32;16.48;;;8.50;;
76863;SDS011;65834;52.364;9.754;2023-04-10T11:57:03;14.23;;;7.85;;
76863;SDS011;65834;52.364;9.754;2023-04-10T11:59:34;15.55;;;9.15;;
76863;SDS011;65834;52.364;9.754;2023-04-10T12:02:07;15.48;;;8.30;;
76863;SDS011;65834;52.364;9.754;2023-04-10T12:04:37;15.38;;;7.53;;
76863;SDS011;65834;52.364;9.754;2023-04-10T12:07:07;14.43;;;7.78;;
76863;SDS011;65834;52.364;9.754;2023-04-10T12:09:37;13.32;;;7.28;;
76863;SDS011;65834;52.364;9.754;2023-04-10T12:12:06;13.93;;;7.68;;
76863;SDS011;65834;52.364;9.754;2023-04-10T12:14:37;12.95;;;7.03;;
76863;SDS011;65834;52.364;9.754;2023-04-10T12:17:09;12.70;;;6.65;;
76863;SDS011;65834;52.364;9.754;2023-04-10T12:19:39;12.93;;;6.25;;
76863;SDS011;65834;52.364;9.754;2023-04-10T12:22:10;12.50;;;6.55;;
76863;SDS011;65834;52.364;9.754;2023-04-10T12:24:40;12.32;;;6.20;;
76863;SDS011;65834;52.364;9.754;2023-04-10T12:27:16;12.77;;;6.05;;
76863;SDS011;65834;52.364;9.754;2023-04-10T12:29:46;12.70;;;6.38;;
76863;SDS011;65834;52.364;9.754;2023-04-10T12:32:18;13.18;;;6.47;;
76863;SDS011;65834;52.364;9.754;2023-04-10T12:37:17;12.55;;;6.65;;
76863;SDS011;65834;52.364;9.754;2023-04-10T12:39:46;12.43;;;5.93;;
76863;SDS011;65834;52.364;9.754;2023-04-10T12:42:17;13.18;;;6.82;;
76863;SDS011;65834;52.364;9.754;2023-04-10T12:44:51;12.77;;;6.32;;
76863;SDS011;65834;52.364;9.754;2023-04-10T12:47:24;12.70;;;6.30;;
76863;SDS011;65834;52.364;9.754;2023-04-10T12:50:04;11.82;;;5.70;;
76863;SDS011;65834;52.364;9.754;2023-04-10T12:52:34;12.40;;;6.07;;
76863;SDS011;65834;52.364;9.754;2023-04-10T12:55:07;12.93;;;6.65;;
76863;SDS011;65834;52.364;9.754;2023-04-10T12:57:37;14.02;;;6.65;;
76863;SDS011;65834;52.364;9.754;2023-04-10T13:00:08;13.02;;;6.22;;
76863;SDS011;65834;52.364;9.754;2023-04-10T13:02:40;12.57;;;6.47;;
76863;SDS011;65834;52.364;9.754;2023-04-10T13:07:39;11.55;;;5.88;;
76863;SDS011;65834;52.364;9.754;2023-04-10T13:10:09;12.70;;;6.43;;
76863;SDS011;65834;52.364;9.754;2023-04-10T13:12:38;13.02;;;6.95;;
76863;SDS011;65834;52.364;9.754;2023-04-10T13:15:09;12.80;;;6.90;;
76863;SDS011;65834;52.364;9.754;2023-04-10T13:17:41;13.32;;;6.50;;
76863;SDS011;65834;52.364;9.754;2023-04-10T13:20:11;12.93;;;6.05;;
76863;SDS011;65834;52.364;9.754;2023-04-10T13:22:40;14.32;;;6.25;;
76863;SDS011;65834;52.364;9.754;2023-04-10T13:25:10;12.60;;;6.40;;
76863;SDS011;65834;52.364;9.754;2023-04-10T13:27:39;11.55;;;5.90;;
76863;SDS011;65834;52.364;9.754;2023-04-10T13:30:08;11.80;;;5.88;;
76863;SDS011;65834;52.364;9.754;2023-04-10T13:32:40;12.20;;;5.68;;
76863;SDS011;65834;52.364;9.754;2023-04-10T13:35:10;11.15;;;5.78;;
76863;SDS011;65834;52.364;9.754;2023-04-10T13:37:39;11.32;;;5.95;;
76863;SDS011;65834;52.364;9.754;2023-04-10T13:40:09;11.20;;;5.63;;
76863;SDS011;65834;52.364;9.754;2023-04-10T13:42:38;10.85;;;5.53;;
76863;SDS011;65834;52.364;9.754;2023-04-10T13:45:08;10.30;;;4.95;;
76863;SDS011;65834;52.364;9.754;2023-04-10T13:47:37;10.65;;;5.43;;
76863;SDS011;65834;52.364;9.754;2023-04-10T13:50:09;10.90;;;5.50;;
76863;SDS011;65834;52.364;9.754;2023-04-10T13:52:39;11.15;;;4.90;;
76863;SDS011;65834;52.364;9.754;2023-04-10T13:55:08;11.10;;;5.43;;
76863;SDS011;65834;52.364;9.754;2023-04-10T13:57:38;12.30;;;6.50;;
76863;SDS011;65834;52.364;9.754;2023-04-10T14:00:08;14.38;;;7.20;;
76863;SDS011;65834;52.364;9.754;2023-04-10T14:02:38;13.73;;;7.55;;
76863;SDS011;65834;52.364;9.754;2023-04-10T14:05:10;12.85;;;6.55;;
76863;SDS011;65834;52.364;9.754;2023-04-10T14:07:40;12.30;;;5.80;;
76863;SDS011;65834;52.364;9.754;2023-04-10T14:10:09;10.48;;;4.70;;
76863;SDS011;65834;52.364;9.754;2023-04-10T14:12:39;10.88;;;4.70;;
76863;SDS011;65834;52.364;9.754;2023-04-10T14:15:08;9.60;;;4.20;;
76863;SDS011;65834;52.364;9.754;2023-04-10T14:17:40;9.57;;;4.28;;
76863;SDS011;65834;52.364;9.754;2023-04-10T14:20:12;10.05;;;4.63;;
76863;SDS011;65834;52.364;9.754;2023-04-10T14:22:42;12.90;;;4.75;;
76863;SDS011;65834;52.364;9.754;2023-04-10T14:25:12;10.15;;;4.68;;
76863;SDS011;65834;52.364;9.754;2023-04-10T14:27:42;10.68;;;4.72;;
76863;SDS011;65834;52.364;9.754;2023-04-10T14:30:11;9.70;;;4.43;;
76863;SDS011;65834;52.364;9.754;2023-04-10T14:32:41;11.13;;;4.82;;
76863;SDS011;65834;52.364;9.754;2023-04-10T14:35:13;11.20;;;4.43;;
76863;SDS011;65834;52.364;9.754;2023-04-10T14:37:42;10.35;;;4.75;;
76863;SDS011;65834;52.364;9.754;2023-04-10T14:40:12;10.55;;;4.45;;
76863;SDS011;65834;52.364;9.754;2023-04-10T14:42:41;10.45;;;5.30;;
76863;SDS011;65834;52.364;9.754;2023-04-10T14:45:11;10.73;;;4.70;;
76863;SDS011;65834;52.364;9.754;2023-04-10T14:47:40;10.82;;;4.60;;
76863;SDS011;65834;52.364;9.754;2023-04-10T14:50:12;11.13;;;4.55;;
76863;SDS011;65834;52.364;9.754;2023-04-10T14:52:42;10.27;;;4.68;;
76863;SDS011;65834;52.364;9.754;2023-04-10T14:55:11;10.80;;;4.65;;
76863;SDS011;65834;52.364;9.754;2023-04-10T14:57:40;9.57;;;4.30;;
76863;SDS011;65834;52.364;9.754;2023-04-10T15:00:10;9.63;;;4.30;;
76863;SDS011;65834;52.364;9.754;2023-04-10T15:02:40;10.88;;;5.10;;
76863;SDS011;65834;52.364;9.754;2023-04-10T15:05:13;10.63;;;4.57;;
76863;SDS011;65834;52.364;9.754;2023-04-10T15:07:42;9.93;;;4.40;;
76863;SDS011;65834;52.364;9.754;2023-04-10T15:10:12;9.35;;;4.35;;
76863;SDS011;65834;52.364;9.754;2023-04-10T15:12:41;10.57;;;4.85;;
76863;SDS011;65834;52.364;9.754;2023-04-10T15:15:10;8.80;;;3.92;;
76863;SDS011;65834;52.364;9.754;2023-04-10T15:17:39;10.23;;;4.10;;
76863;SDS011;65834;52.364;9.754;2023-04-10T15:20:09;9.75;;;4.28;;
76863;SDS011;65834;52.364;9.754;2023-04-10T15:22:42;9.35;;;4.50;;